sensor_id;sensor_type;location;lat;lon;timestamp;temperature;humidity
18139;DHT22;9195;53.176;9.486;2022-10-17T00:01:01;13.30;99.90
18139;DHT22;9195;53.176;9.486;2022-10-17T00:03:27;13.40;99.90
18139;DHT22;9195;53.176;9.486;2022-10-17T00:05:52;13.40;99.90
18139;DHT22;9195;53.176;9.486;2022-10-17T00:08:18;13.50;99.90
18139;DHT22;9195;53.176;9.486;2022-10-17T00:10:45;13.50;99.90
18139;DHT22;9195;53.176;9.486;2022-10-17T00:13:11;13.60;99.90
18139;DHT22;9195;53.176;9.486;2022-10-17T00:15:36;13.60;99.90
18139;DHT22;9195;53.176;9.486;2022-10-17T00:18:03;13.60;99.90
18139;DHT22;9195;53.176;9.486;2022-10-17T00:20:28;13.70;99.90
18139;DHT22;9195;53.176;9.486;2022-10-17T00:22:55;13.70;99.90
18139;DHT22;9195;53.176;9.486;2022-10-17T00:25:21;13.70;99.90
18139;DHT22;9195;53.176;9.486;2022-10-17T00:27:46;13.70;99.90
18139;DHT22;9195;53.176;9.486;2022-10-17T00:30:13;13.70;99.90
18139;DHT22;9195;53.176;9.486;2022-10-17T00:32:39;13.60;99.90
18139;DHT22;9195;53.176;9.486;2022-10-17T00:35:06;13.60;99.90
18139;DHT22;9195;53.176;9.486;2022-10-17T00:37:32;13.70;99.90
18139;DHT22;9195;53.176;9.486;2022-10-17T00:39:58;13.70;99.90
18139;DHT22;9195;53.176;9.486;2022-10-17T00:42:24;13.80;99.90
18139;DHT22;9195;53.176;9.486;2022-10-17T00:44:56;13.80;99.90
18139;DHT22;9195;53.176;9.486;2022-10-17T00:47:22;13.80;99.90
18139;DHT22;9195;53.176;9.486;2022-10-17T00:49:48;13.80;99.90
18139;DHT22;9195;53.176;9.486;2022-10-17T00:52:17;13.90;99.90
18139;DHT22;9195;53.176;9.486;2022-10-17T00:54:48;13.90;99.90
18139;DHT22;9195;53.176;9.486;2022-10-17T00:57:15;13.90;99.90
18139;DHT22;9195;53.176;9.486;2022-10-17T00:59:43;13.90;99.90
18139;DHT22;9195;53.176;9.486;2022-10-17T01:02:15;13.90;99.90
18139;DHT22;9195;53.176;9.486;2022-10-17T01:04:46;13.90;99.90
18139;DHT22;9195;53.176;9.486;2022-10-17T01:07:12;13.90;99.90
18139;DHT22;9195;53.176;9.486;2022-10-17T01:09:38;13.90;99.90
18139;DHT22;9195;53.176;9.486;2022-10-17T01:20:00;14.00;99.90
18139;DHT22;9195;53.176;9.486;2022-10-17T01:31:19;14.00;99.90
18139;DHT22;9195;53.176;9.486;2022-10-17T01:34:00;14.00;99.90
18139;DHT22;9195;53.176;9.486;2022-10-17T01:47:03;14.00;99.90
18139;DHT22;9195;53.176;9.486;2022-10-17T01:49:31;14.10;99.90
18139;DHT22;9195;53.176;9.486;2022-10-17T01:52:18;14.10;99.90
18139;DHT22;9195;53.176;9.486;2022-10-17T01:54:51;14.10;99.90
18139;DHT22;9195;53.176;9.486;2022-10-17T01:57:39;14.10;99.90
18139;DHT22;9195;53.176;9.486;2022-10-17T02:00:09;14.10;99.90
18139;DHT22;9195;53.176;9.486;2022-10-17T02:02:36;14.10;99.90
18139;DHT22;9195;53.176;9.486;2022-10-17T02:05:03;14.00;99.90
18139;DHT22;9195;53.176;9.486;2022-10-17T02:07:28;14.00;99.90
18139;DHT22;9195;53.176;9.486;2022-10-17T02:09:54;14.00;99.90
18139;DHT22;9195;53.176;9.486;2022-10-17T02:15:19;13.90;99.90
18139;DHT22;9195;53.176;9.486;2022-10-17T02:24:17;13.90;99.90
18139;DHT22;9195;53.176;9.486;2022-10-17T02:29:15;13.80;99.90
18139;DHT22;9195;53.176;9.486;2022-10-17T02:32:04;13.80;99.90
18139;DHT22;9195;53.176;9.486;2022-10-17T02:34:48;13.70;99.90
18139;DHT22;9195;53.176;9.486;2022-10-17T02:37:19;13.70;99.90
18139;DHT22;9195;53.176;9.486;2022-10-17T02:39:46;13.60;99.90
18139;DHT22;9195;53.176;9.486;2022-10-17T02:42:13;13.60;99.90
18139;DHT22;9195;53.176;9.486;2022-10-17T02:44:41;13.60;99.90
18139;DHT22;9195;53.176;9.486;2022-10-17T02:49:44;13.50;99.90
18139;DHT22;9195;53.176;9.486;2022-10-17T02:52:28;13.50;99.90
18139;DHT22;9195;53.176;9.486;2022-10-17T02:55:05;13.40;99.90
18139;DHT22;9195;53.176;9.486;2022-10-17T02:57:40;13.40;99.90
18139;DHT22;9195;53.176;9.486;2022-10-17T03:00:10;13.30;99.90
18139;DHT22;9195;53.176;9.486;2022-10-17T03:02:50;13.30;99.90
18139;DHT22;9195;53.176;9.486;2022-10-17T03:05:19;13.30;99.90
18139;DHT22;9195;53.176;9.486;2022-10-17T03:07:45;13.30;99.90
18139;DHT22;9195;53.176;9.486;2022-10-17T03:10:11;13.20;99.90
18139;DHT22;9195;53.176;9.486;2022-10-17T03:12:37;13.20;99.90
18139;DHT22;9195;53.176;9.486;2022-10-17T03:15:03;13.20;99.90
18139;DHT22;9195;53.176;9.486;2022-10-17T03:17:29;13.20;99.90
18139;DHT22;9195;53.176;9.486;2022-10-17T03:19:54;13.10;99.90
18139;DHT22;9195;53.176;9.486;2022-10-17T03:22:20;13.10;99.90
18139;DHT22;9195;53.176;9.486;2022-10-17T03:24:46;13.10;99.90
18139;DHT22;9195;53.176;9.486;2022-10-17T03:27:11;13.00;99.90
18139;DHT22;9195;53.176;9.486;2022-10-17T03:29:37;13.00;99.90
18139;DHT22;9195;53.176;9.486;2022-10-17T03:32:02;13.00;99.90
18139;DHT22;9195;53.176;9.486;2022-10-17T03:34:28;13.00;99.90
18139;DHT22;9195;53.176;9.486;2022-10-17T03:36:54;13.00;99.90
18139;DHT22;9195;53.176;9.486;2022-10-17T03:39:19;13.00;99.90
18139;DHT22;9195;53.176;9.486;2022-10-17T03:41:45;13.00;99.90
18139;DHT22;9195;53.176;9.486;2022-10-17T03:44:11;12.90;99.90
18139;DHT22;9195;53.176;9.486;2022-10-17T03:46:36;12.90;99.90
18139;DHT22;9195;53.176;9.486;2022-10-17T03:49:02;12.90;99.90
18139;DHT22;9195;53.176;9.486;2022-10-17T03:51:28;12.90;99.90
18139;DHT22;9195;53.176;9.486;2022-10-17T03:53:53;12.80;99.90
18139;DHT22;9195;53.176;9.486;2022-10-17T03:56:23;12.80;99.90
18139;DHT22;9195;53.176;9.486;2022-10-17T03:58:48;12.90;99.90
18139;DHT22;9195;53.176;9.486;2022-10-17T04:01:16;12.90;99.90
18139;DHT22;9195;53.176;9.486;2022-10-17T04:03:43;12.90;99.90
18139;DHT22;9195;53.176;9.486;2022-10-17T04:06:11;12.90;99.90
18139;DHT22;9195;53.176;9.486;2022-10-17T04:08:37;12.90;99.90
18139;DHT22;9195;53.176;9.486;2022-10-17T04:11:05;12.90;99.90
18139;DHT22;9195;53.176;9.486;2022-10-17T04:13:31;13.00;99.90
18139;DHT22;9195;53.176;9.486;2022-10-17T04:16:02;13.00;99.90
18139;DHT22;9195;53.176;9.486;2022-10-17T04:18:29;13.00;99.90
18139;DHT22;9195;53.176;9.486;2022-10-17T04:20:55;13.00;99.90
18139;DHT22;9195;53.176;9.486;2022-10-17T04:23:21;13.10;99.90
18139;DHT22;9195;53.176;9.486;2022-10-17T04:25:47;13.10;99.90
18139;DHT22;9195;53.176;9.486;2022-10-17T04:28:13;13.10;99.90
18139;DHT22;9195;53.176;9.486;2022-10-17T04:30:39;13.10;99.90
18139;DHT22;9195;53.176;9.486;2022-10-17T04:33:05;13.10;99.90
18139;DHT22;9195;53.176;9.486;2022-10-17T04:35:31;13.10;99.90
18139;DHT22;9195;53.176;9.486;2022-10-17T04:37:56;13.10;99.90
18139;DHT22;9195;53.176;9.486;2022-10-17T04:40:22;13.10;99.90
18139;DHT22;9195;53.176;9.486;2022-10-17T04:42:47;13.10;99.90
18139;DHT22;9195;53.176;9.486;2022-10-17T04:45:13;13.10;99.90
18139;DHT22;9195;53.176;9.486;2022-10-17T04:47:39;13.10;99.90
18139;DHT22;9195;53.176;9.486;2022-10-17T04:50:05;13.10;99.90
18139;DHT22;9195;53.176;9.486;2022-10-17T04:52:30;13.10;99.90
18139;DHT22;9195;53.176;9.486;2022-10-17T04:54:56;13.10;99.90
18139;DHT22;9195;53.176;9.486;2022-10-17T04:57:22;13.10;99.90
18139;DHT22;9195;53.176;9.486;2022-10-17T04:59:49;13.10;99.90
18139;DHT22;9195;53.176;9.486;2022-10-17T05:02:15;13.10;99.90
18139;DHT22;9195;53.176;9.486;2022-10-17T05:04:41;13.10;99.90
18139;DHT22;9195;53.176;9.486;2022-10-17T05:07:06;13.10;99.90
18139;DHT22;9195;53.176;9.486;2022-10-17T05:09:32;13.10;99.90
18139;DHT22;9195;53.176;9.486;2022-10-17T05:11:58;13.10;99.90
18139;DHT22;9195;53.176;9.486;2022-10-17T05:14:23;13.10;99.90
18139;DHT22;9195;53.176;9.486;2022-10-17T05:16:49;13.10;99.90
18139;DHT22;9195;53.176;9.486;2022-10-17T05:19:14;13.10;99.90
18139;DHT22;9195;53.176;9.486;2022-10-17T05:21:41;13.10;99.90
18139;DHT22;9195;53.176;9.486;2022-10-17T05:24:08;13.10;99.90
18139;DHT22;9195;53.176;9.486;2022-10-17T05:26:34;13.10;99.90
18139;DHT22;9195;53.176;9.486;2022-10-17T05:29:01;13.10;99.90
18139;DHT22;9195;53.176;9.486;2022-10-17T05:31:28;13.10;99.90
18139;DHT22;9195;53.176;9.486;2022-10-17T05:33:54;13.10;99.90
18139;DHT22;9195;53.176;9.486;2022-10-17T05:36:21;13.10;99.90
18139;DHT22;9195;53.176;9.486;2022-10-17T05:38:50;13.20;99.90
18139;DHT22;9195;53.176;9.486;2022-10-17T05:41:17;13.20;99.90
18139;DHT22;9195;53.176;9.486;2022-10-17T05:43:43;13.20;99.90
18139;DHT22;9195;53.176;9.486;2022-10-17T05:46:08;13.20;99.90
18139;DHT22;9195;53.176;9.486;2022-10-17T05:48:34;13.20;99.90
18139;DHT22;9195;53.176;9.486;2022-10-17T05:51:03;13.20;99.90
18139;DHT22;9195;53.176;9.486;2022-10-17T05:53:30;13.20;99.90
18139;DHT22;9195;53.176;9.486;2022-10-17T05:56:00;13.20;99.90
18139;DHT22;9195;53.176;9.486;2022-10-17T05:58:27;13.30;99.90
18139;DHT22;9195;53.176;9.486;2022-10-17T06:01:04;13.30;99.90
18139;DHT22;9195;53.176;9.486;2022-10-17T06:03:31;13.30;99.90
18139;DHT22;9195;53.176;9.486;2022-10-17T06:06:06;13.30;99.90
18139;DHT22;9195;53.176;9.486;2022-10-17T06:08:32;13.30;99.90
18139;DHT22;9195;53.176;9.486;2022-10-17T06:10:58;13.40;99.90
18139;DHT22;9195;53.176;9.486;2022-10-17T06:13:24;13.40;99.90
18139;DHT22;9195;53.176;9.486;2022-10-17T06:15:50;13.40;99.90
18139;DHT22;9195;53.176;9.486;2022-10-17T06:18:15;13.50;99.90
18139;DHT22;9195;53.176;9.486;2022-10-17T06:20:41;13.50;99.90
18139;DHT22;9195;53.176;9.486;2022-10-17T06:23:07;13.60;99.90
18139;DHT22;9195;53.176;9.486;2022-10-17T06:25:32;13.60;99.90
18139;DHT22;9195;53.176;9.486;2022-10-17T06:27:58;13.70;99.90
18139;DHT22;9195;53.176;9.486;2022-10-17T06:30:24;13.70;99.90
18139;DHT22;9195;53.176;9.486;2022-10-17T06:32:51;13.80;99.90
18139;DHT22;9195;53.176;9.486;2022-10-17T06:35:18;13.80;99.90
18139;DHT22;9195;53.176;9.486;2022-10-17T06:37:43;13.90;99.90
18139;DHT22;9195;53.176;9.486;2022-10-17T06:40:09;13.90;99.90
18139;DHT22;9195;53.176;9.486;2022-10-17T06:42:40;14.00;99.90
18139;DHT22;9195;53.176;9.486;2022-10-17T06:45:06;14.00;99.90
18139;DHT22;9195;53.176;9.486;2022-10-17T06:47:33;14.10;99.90
18139;DHT22;9195;53.176;9.486;2022-10-17T06:49:58;14.20;99.90
18139;DHT22;9195;53.176;9.486;2022-10-17T06:52:24;14.30;99.90
18139;DHT22;9195;53.176;9.486;2022-10-17T06:54:50;14.30;99.90
18139;DHT22;9195;53.176;9.486;2022-10-17T06:57:18;14.40;99.90
18139;DHT22;9195;53.176;9.486;2022-10-17T06:59:44;14.40;99.90
18139;DHT22;9195;53.176;9.486;2022-10-17T07:02:10;14.50;99.90
18139;DHT22;9195;53.176;9.486;2022-10-17T07:04:35;14.60;99.90
18139;DHT22;9195;53.176;9.486;2022-10-17T07:07:01;14.60;99.90
18139;DHT22;9195;53.176;9.486;2022-10-17T07:09:28;14.70;99.90
18139;DHT22;9195;53.176;9.486;2022-10-17T07:11:54;14.70;99.90
18139;DHT22;9195;53.176;9.486;2022-10-17T07:14:19;14.70;99.90
18139;DHT22;9195;53.176;9.486;2022-10-17T07:16:45;14.80;99.90
18139;DHT22;9195;53.176;9.486;2022-10-17T07:19:11;14.80;99.90
18139;DHT22;9195;53.176;9.486;2022-10-17T07:21:36;14.90;99.90
18139;DHT22;9195;53.176;9.486;2022-10-17T07:24:02;15.10;99.90
18139;DHT22;9195;53.176;9.486;2022-10-17T07:26:28;15.20;99.90
18139;DHT22;9195;53.176;9.486;2022-10-17T07:28:54;15.40;99.90
18139;DHT22;9195;53.176;9.486;2022-10-17T07:31:21;15.50;99.90
18139;DHT22;9195;53.176;9.486;2022-10-17T07:33:47;15.70;99.90
18139;DHT22;9195;53.176;9.486;2022-10-17T07:36:14;15.80;99.90
18139;DHT22;9195;53.176;9.486;2022-10-17T07:38:39;15.80;99.90
18139;DHT22;9195;53.176;9.486;2022-10-17T07:41:08;15.90;99.90
18139;DHT22;9195;53.176;9.486;2022-10-17T07:43:34;16.00;99.90
18139;DHT22;9195;53.176;9.486;2022-10-17T07:46:02;16.10;99.90
18139;DHT22;9195;53.176;9.486;2022-10-17T07:48:29;16.10;99.90
18139;DHT22;9195;53.176;9.486;2022-10-17T07:50:54;16.30;99.90
18139;DHT22;9195;53.176;9.486;2022-10-17T07:53:20;16.40;99.90
18139;DHT22;9195;53.176;9.486;2022-10-17T07:55:46;16.50;99.90
18139;DHT22;9195;53.176;9.486;2022-10-17T07:58:13;16.50;99.90
18139;DHT22;9195;53.176;9.486;2022-10-17T08:00:38;16.60;99.90
18139;DHT22;9195;53.176;9.486;2022-10-17T08:03:05;16.80;99.90
18139;DHT22;9195;53.176;9.486;2022-10-17T08:05:31;16.90;99.90
18139;DHT22;9195;53.176;9.486;2022-10-17T08:07:57;16.90;99.90
18139;DHT22;9195;53.176;9.486;2022-10-17T08:10:23;17.00;99.90
18139;DHT22;9195;53.176;9.486;2022-10-17T08:12:54;17.10;99.90
18139;DHT22;9195;53.176;9.486;2022-10-17T08:15:21;17.30;99.90
18139;DHT22;9195;53.176;9.486;2022-10-17T08:17:46;17.40;99.90
18139;DHT22;9195;53.176;9.486;2022-10-17T08:20:12;17.50;99.90
18139;DHT22;9195;53.176;9.486;2022-10-17T08:22:38;17.70;99.90
18139;DHT22;9195;53.176;9.486;2022-10-17T08:25:04;17.70;99.90
18139;DHT22;9195;53.176;9.486;2022-10-17T08:27:32;17.80;99.90
18139;DHT22;9195;53.176;9.486;2022-10-17T08:29:58;17.80;99.90
18139;DHT22;9195;53.176;9.486;2022-10-17T08:32:25;17.80;99.90
18139;DHT22;9195;53.176;9.486;2022-10-17T08:34:52;18.00;99.90
18139;DHT22;9195;53.176;9.486;2022-10-17T08:37:18;18.20;99.90
18139;DHT22;9195;53.176;9.486;2022-10-17T08:39:44;18.40;99.90
18139;DHT22;9195;53.176;9.486;2022-10-17T08:47:39;18.70;99.90
18139;DHT22;9195;53.176;9.486;2022-10-17T08:50:11;18.90;99.90
18139;DHT22;9195;53.176;9.486;2022-10-17T08:52:50;19.10;99.90
18139;DHT22;9195;53.176;9.486;2022-10-17T08:55:31;19.40;99.90
18139;DHT22;9195;53.176;9.486;2022-10-17T08:57:57;19.70;99.90
18139;DHT22;9195;53.176;9.486;2022-10-17T09:00:24;20.00;99.90
18139;DHT22;9195;53.176;9.486;2022-10-17T09:05:49;20.40;99.90
18139;DHT22;9195;53.176;9.486;2022-10-17T09:22:22;21.30;99.90
18139;DHT22;9195;53.176;9.486;2022-10-17T09:24:56;21.20;99.90
18139;DHT22;9195;53.176;9.486;2022-10-17T09:27:32;21.30;99.90
18139;DHT22;9195;53.176;9.486;2022-10-17T09:30:28;21.60;99.90
18139;DHT22;9195;53.176;9.486;2022-10-17T09:32:56;22.00;99.90
18139;DHT22;9195;53.176;9.486;2022-10-17T09:35:22;22.20;99.90
18139;DHT22;9195;53.176;9.486;2022-10-17T09:37:48;22.20;99.90
18139;DHT22;9195;53.176;9.486;2022-10-17T09:40:30;22.30;99.90
18139;DHT22;9195;53.176;9.486;2022-10-17T09:42:56;22.40;99.90
18139;DHT22;9195;53.176;9.486;2022-10-17T09:45:23;22.50;99.90
18139;DHT22;9195;53.176;9.486;2022-10-17T09:48:07;22.60;99.90
18139;DHT22;9195;53.176;9.486;2022-10-17T09:50:35;22.60;99.90
18139;DHT22;9195;53.176;9.486;2022-10-17T09:53:38;22.80;99.90
18139;DHT22;9195;53.176;9.486;2022-10-17T09:56:16;22.60;99.90
18139;DHT22;9195;53.176;9.486;2022-10-17T09:58:42;22.70;99.90
18139;DHT22;9195;53.176;9.486;2022-10-17T10:01:21;22.80;99.90
18139;DHT22;9195;53.176;9.486;2022-10-17T10:03:47;22.70;99.90
18139;DHT22;9195;53.176;9.486;2022-10-17T10:06:19;22.70;99.90
18139;DHT22;9195;53.176;9.486;2022-10-17T10:08:53;22.70;99.90
18139;DHT22;9195;53.176;9.486;2022-10-17T10:11:23;22.70;99.90
18139;DHT22;9195;53.176;9.486;2022-10-17T10:13:50;22.60;99.90
18139;DHT22;9195;53.176;9.486;2022-10-17T10:16:20;22.60;99.90
18139;DHT22;9195;53.176;9.486;2022-10-17T10:18:47;22.40;99.90
18139;DHT22;9195;53.176;9.486;2022-10-17T10:21:25;22.40;99.90
18139;DHT22;9195;53.176;9.486;2022-10-17T10:26:44;22.20;99.90
18139;DHT22;9195;53.176;9.486;2022-10-17T10:29:27;22.10;99.90
18139;DHT22;9195;53.176;9.486;2022-10-17T10:31:57;22.00;99.90
18139;DHT22;9195;53.176;9.486;2022-10-17T10:34:31;22.00;99.90
18139;DHT22;9195;53.176;9.486;2022-10-17T10:36:58;21.80;99.90
18139;DHT22;9195;53.176;9.486;2022-10-17T10:39:40;21.70;99.90
18139;DHT22;9195;53.176;9.486;2022-10-17T10:42:16;21.60;99.90
18139;DHT22;9195;53.176;9.486;2022-10-17T10:44:43;21.40;99.90
18139;DHT22;9195;53.176;9.486;2022-10-17T10:49:44;21.30;99.90
18139;DHT22;9195;53.176;9.486;2022-10-17T10:52:31;21.30;99.90
18139;DHT22;9195;53.176;9.486;2022-10-17T10:55:24;21.30;99.90
18139;DHT22;9195;53.176;9.486;2022-10-17T10:57:53;21.20;99.90
18139;DHT22;9195;53.176;9.486;2022-10-17T11:00:24;21.20;99.90
18139;DHT22;9195;53.176;9.486;2022-10-17T11:03:08;21.30;99.90
18139;DHT22;9195;53.176;9.486;2022-10-17T11:05:40;21.30;99.90
18139;DHT22;9195;53.176;9.486;2022-10-17T11:08:25;21.30;99.90
18139;DHT22;9195;53.176;9.486;2022-10-17T11:13:43;21.10;99.90
18139;DHT22;9195;53.176;9.486;2022-10-17T11:19:33;21.00;99.90
18139;DHT22;9195;53.176;9.486;2022-10-17T11:22:20;20.90;99.90
18139;DHT22;9195;53.176;9.486;2022-10-17T11:24:53;20.90;99.90
18139;DHT22;9195;53.176;9.486;2022-10-17T11:27:22;20.90;99.90
18139;DHT22;9195;53.176;9.486;2022-10-17T11:29:48;20.90;99.90
18139;DHT22;9195;53.176;9.486;2022-10-17T11:32:20;20.80;99.90
18139;DHT22;9195;53.176;9.486;2022-10-17T11:34:52;20.80;99.90
18139;DHT22;9195;53.176;9.486;2022-10-17T11:37:38;20.70;99.90
18139;DHT22;9195;53.176;9.486;2022-10-17T11:40:08;20.70;99.90
18139;DHT22;9195;53.176;9.486;2022-10-17T11:42:41;20.60;99.90
18139;DHT22;9195;53.176;9.486;2022-10-17T11:45:14;20.60;99.90
18139;DHT22;9195;53.176;9.486;2022-10-17T11:47:58;20.60;99.90
18139;DHT22;9195;53.176;9.486;2022-10-17T11:50:29;20.60;99.90
18139;DHT22;9195;53.176;9.486;2022-10-17T11:53:04;20.70;99.90
18139;DHT22;9195;53.176;9.486;2022-10-17T11:55:33;20.80;99.90
18139;DHT22;9195;53.176;9.486;2022-10-17T12:03:41;20.80;99.90
18139;DHT22;9195;53.176;9.486;2022-10-17T12:06:34;20.70;99.90
18139;DHT22;9195;53.176;9.486;2022-10-17T12:11:33;20.70;99.90
18139;DHT22;9195;53.176;9.486;2022-10-17T12:14:02;20.70;99.90
18139;DHT22;9195;53.176;9.486;2022-10-17T12:16:35;20.80;99.90
18139;DHT22;9195;53.176;9.486;2022-10-17T12:21:27;20.60;99.90
18139;DHT22;9195;53.176;9.486;2022-10-17T12:23:54;20.60;99.90
18139;DHT22;9195;53.176;9.486;2022-10-17T12:26:27;20.60;99.90
18139;DHT22;9195;53.176;9.486;2022-10-17T12:28:53;20.50;99.90
18139;DHT22;9195;53.176;9.486;2022-10-17T12:31:22;20.40;99.90
18139;DHT22;9195;53.176;9.486;2022-10-17T12:33:54;20.30;99.90
18139;DHT22;9195;53.176;9.486;2022-10-17T12:52:17;18.00;99.90
18139;DHT22;9195;53.176;9.486;2022-10-17T12:54:56;17.90;99.90
18139;DHT22;9195;53.176;9.486;2022-10-17T13:00:34;17.60;99.90
18139;DHT22;9195;53.176;9.486;2022-10-17T13:03:13;17.60;99.90
18139;DHT22;9195;53.176;9.486;2022-10-17T13:05:44;17.80;99.90
18139;DHT22;9195;53.176;9.486;2022-10-17T13:08:19;17.60;99.90
18139;DHT22;9195;53.176;9.486;2022-10-17T13:10:48;17.80;99.90
18139;DHT22;9195;53.176;9.486;2022-10-17T13:13:19;17.60;99.90
18139;DHT22;9195;53.176;9.486;2022-10-17T13:15:50;17.60;99.90
18139;DHT22;9195;53.176;9.486;2022-10-17T13:18:24;17.50;99.90
18139;DHT22;9195;53.176;9.486;2022-10-17T13:23:51;17.30;99.90
18139;DHT22;9195;53.176;9.486;2022-10-17T13:26:25;17.50;99.90
18139;DHT22;9195;53.176;9.486;2022-10-17T13:29:10;17.40;99.90
18139;DHT22;9195;53.176;9.486;2022-10-17T13:31:39;17.30;99.90
18139;DHT22;9195;53.176;9.486;2022-10-17T13:34:16;17.20;99.90
18139;DHT22;9195;53.176;9.486;2022-10-17T13:36:45;17.30;99.90
18139;DHT22;9195;53.176;9.486;2022-10-17T13:39:14;17.20;99.90
18139;DHT22;9195;53.176;9.486;2022-10-17T13:41:42;17.30;99.90
18139;DHT22;9195;53.176;9.486;2022-10-17T13:44:17;17.30;99.90
18139;DHT22;9195;53.176;9.486;2022-10-17T13:46:44;17.40;99.90
18139;DHT22;9195;53.176;9.486;2022-10-17T13:49:16;17.40;99.90
18139;DHT22;9195;53.176;9.486;2022-10-17T13:51:45;17.60;99.90
18139;DHT22;9195;53.176;9.486;2022-10-17T13:56:57;17.60;99.90
18139;DHT22;9195;53.176;9.486;2022-10-17T13:59:38;17.40;99.90
18139;DHT22;9195;53.176;9.486;2022-10-17T14:02:08;17.40;99.90
18139;DHT22;9195;53.176;9.486;2022-10-17T14:04:38;17.40;99.90
18139;DHT22;9195;53.176;9.486;2022-10-17T14:07:04;17.40;99.90
18139;DHT22;9195;53.176;9.486;2022-10-17T14:09:32;17.40;99.90
18139;DHT22;9195;53.176;9.486;2022-10-17T14:12:09;17.40;99.90
18139;DHT22;9195;53.176;9.486;2022-10-17T14:14:37;17.30;99.90
18139;DHT22;9195;53.176;9.486;2022-10-17T14:17:13;17.30;99.90
18139;DHT22;9195;53.176;9.486;2022-10-17T14:19:39;17.20;99.90
18139;DHT22;9195;53.176;9.486;2022-10-17T14:22:17;17.30;99.90
18139;DHT22;9195;53.176;9.486;2022-10-17T14:24:49;17.40;99.90
18139;DHT22;9195;53.176;9.486;2022-10-17T14:27:53;17.40;99.90
18139;DHT22;9195;53.176;9.486;2022-10-17T14:30:32;17.40;99.90
18139;DHT22;9195;53.176;9.486;2022-10-17T14:33:00;17.30;99.90
18139;DHT22;9195;53.176;9.486;2022-10-17T14:35:28;17.30;99.90
18139;DHT22;9195;53.176;9.486;2022-10-17T14:38:00;17.20;99.90
18139;DHT22;9195;53.176;9.486;2022-10-17T14:40:27;17.30;99.90
18139;DHT22;9195;53.176;9.486;2022-10-17T14:42:58;17.30;99.90
18139;DHT22;9195;53.176;9.486;2022-10-17T14:45:27;17.30;99.90
18139;DHT22;9195;53.176;9.486;2022-10-17T14:48:01;17.30;99.90
18139;DHT22;9195;53.176;9.486;2022-10-17T14:50:29;17.30;99.90
18139;DHT22;9195;53.176;9.486;2022-10-17T14:53:03;17.40;99.90
18139;DHT22;9195;53.176;9.486;2022-10-17T14:55:30;17.30;99.90
18139;DHT22;9195;53.176;9.486;2022-10-17T14:57:57;17.40;99.90
18139;DHT22;9195;53.176;9.486;2022-10-17T15:00:23;17.30;99.90
18139;DHT22;9195;53.176;9.486;2022-10-17T15:02:50;17.30;99.90
18139;DHT22;9195;53.176;9.486;2022-10-17T15:05:17;17.30;99.90
18139;DHT22;9195;53.176;9.486;2022-10-17T15:07:43;17.20;99.90
18139;DHT22;9195;53.176;9.486;2022-10-17T15:10:31;17.20;99.90
18139;DHT22;9195;53.176;9.486;2022-10-17T15:12:58;17.30;99.90
18139;DHT22;9195;53.176;9.486;2022-10-17T15:15:28;17.20;99.90
18139;DHT22;9195;53.176;9.486;2022-10-17T15:17:54;17.30;99.90
18139;DHT22;9195;53.176;9.486;2022-10-17T15:20:20;17.30;99.90
18139;DHT22;9195;53.176;9.486;2022-10-17T15:22:53;17.20;99.90
18139;DHT22;9195;53.176;9.486;2022-10-17T15:25:19;17.30;99.90
18139;DHT22;9195;53.176;9.486;2022-10-17T15:27:45;17.30;99.90
18139;DHT22;9195;53.176;9.486;2022-10-17T15:30:27;17.30;99.90
18139;DHT22;9195;53.176;9.486;2022-10-17T15:32:53;17.30;99.90
18139;DHT22;9195;53.176;9.486;2022-10-17T15:35:19;17.30;99.90
18139;DHT22;9195;53.176;9.486;2022-10-17T15:37:45;17.20;99.90
18139;DHT22;9195;53.176;9.486;2022-10-17T15:40:17;17.20;99.90
18139;DHT22;9195;53.176;9.486;2022-10-17T15:42:42;17.20;99.90
18139;DHT22;9195;53.176;9.486;2022-10-17T15:45:11;17.20;99.90
18139;DHT22;9195;53.176;9.486;2022-10-17T15:47:40;17.20;99.90
18139;DHT22;9195;53.176;9.486;2022-10-17T15:50:06;17.10;99.90
18139;DHT22;9195;53.176;9.486;2022-10-17T15:52:35;17.20;99.90
18139;DHT22;9195;53.176;9.486;2022-10-17T15:55:00;17.10;99.90
18139;DHT22;9195;53.176;9.486;2022-10-17T15:57:29;17.10;99.90
18139;DHT22;9195;53.176;9.486;2022-10-17T15:59:58;17.00;99.90
18139;DHT22;9195;53.176;9.486;2022-10-17T16:02:24;17.10;99.90
18139;DHT22;9195;53.176;9.486;2022-10-17T16:04:50;17.10;99.90
18139;DHT22;9195;53.176;9.486;2022-10-17T16:07:17;17.10;99.90
18139;DHT22;9195;53.176;9.486;2022-10-17T16:09:43;17.10;99.90
18139;DHT22;9195;53.176;9.486;2022-10-17T16:12:26;17.10;99.90
18139;DHT22;9195;53.176;9.486;2022-10-17T16:14:52;17.10;99.90
18139;DHT22;9195;53.176;9.486;2022-10-17T16:17:18;17.00;99.90
18139;DHT22;9195;53.176;9.486;2022-10-17T16:19:44;17.10;99.90
18139;DHT22;9195;53.176;9.486;2022-10-17T16:22:30;17.10;99.90
18139;DHT22;9195;53.176;9.486;2022-10-17T16:24:56;17.10;99.90
18139;DHT22;9195;53.176;9.486;2022-10-17T16:27:31;17.10;99.90
18139;DHT22;9195;53.176;9.486;2022-10-17T16:29:57;17.20;99.90
18139;DHT22;9195;53.176;9.486;2022-10-17T16:32:22;17.20;99.90
18139;DHT22;9195;53.176;9.486;2022-10-17T16:34:48;17.10;99.90
18139;DHT22;9195;53.176;9.486;2022-10-17T16:37:14;17.00;99.90
18139;DHT22;9195;53.176;9.486;2022-10-17T16:39:39;17.00;99.90
18139;DHT22;9195;53.176;9.486;2022-10-17T16:42:05;17.00;99.90
18139;DHT22;9195;53.176;9.486;2022-10-17T16:44:31;17.00;99.90
18139;DHT22;9195;53.176;9.486;2022-10-17T16:46:56;17.00;99.90
18139;DHT22;9195;53.176;9.486;2022-10-17T16:49:22;17.00;99.90
18139;DHT22;9195;53.176;9.486;2022-10-17T16:51:48;17.00;99.90
18139;DHT22;9195;53.176;9.486;2022-10-17T16:54:13;17.00;99.90
18139;DHT22;9195;53.176;9.486;2022-10-17T16:56:39;17.00;99.90
18139;DHT22;9195;53.176;9.486;2022-10-17T16:59:06;16.90;99.90
18139;DHT22;9195;53.176;9.486;2022-10-17T17:01:33;16.90;99.90
18139;DHT22;9195;53.176;9.486;2022-10-17T17:03:59;16.90;99.90
18139;DHT22;9195;53.176;9.486;2022-10-17T17:06:27;16.90;99.90
18139;DHT22;9195;53.176;9.486;2022-10-17T17:08:54;16.90;99.90
18139;DHT22;9195;53.176;9.486;2022-10-17T17:11:22;16.90;99.90
18139;DHT22;9195;53.176;9.486;2022-10-17T17:13:48;16.90;99.90
18139;DHT22;9195;53.176;9.486;2022-10-17T17:16:17;16.90;99.90
18139;DHT22;9195;53.176;9.486;2022-10-17T17:18:43;16.90;99.90
18139;DHT22;9195;53.176;9.486;2022-10-17T17:21:11;16.80;99.90
18139;DHT22;9195;53.176;9.486;2022-10-17T17:23:38;16.80;99.90
18139;DHT22;9195;53.176;9.486;2022-10-17T17:26:17;16.80;99.90
18139;DHT22;9195;53.176;9.486;2022-10-17T17:28:42;16.80;99.90
18139;DHT22;9195;53.176;9.486;2022-10-17T17:31:15;16.80;99.90
18139;DHT22;9195;53.176;9.486;2022-10-17T17:33:41;16.90;99.90
18139;DHT22;9195;53.176;9.486;2022-10-17T17:36:09;16.80;99.90
18139;DHT22;9195;53.176;9.486;2022-10-17T17:38:36;16.80;99.90
18139;DHT22;9195;53.176;9.486;2022-10-17T17:41:02;16.80;99.90
18139;DHT22;9195;53.176;9.486;2022-10-17T17:43:28;16.80;99.90
18139;DHT22;9195;53.176;9.486;2022-10-17T17:45:54;16.80;99.90
18139;DHT22;9195;53.176;9.486;2022-10-17T17:48:20;16.90;99.90